Time;durP1;ratioP1;P1;durP2;ratioP2;P2;SDS_P1;SDS_P2;PMS_P1;PMS_P2;Temp;Humidity;BMP_temperature;BMP_pressure;BME280_temperature;BME280_humidity;BME280_pressure;Samples;Min_cycle;Max_cycle;Signal;HPM_P1;HPM_P2
2022/09/18 00:01:10;;;;;;;5.20;0.97;;;;;;;18.73;57.41;100520.47;5015808;28;20448;-69
2022/09/18 00:03:35;;;;;;;5.37;1.43;;;;;;;18.72;57.49;100518.81;5016126;28;20194;-69
2022/09/18 00:06:10;;;;;;;2.70;1.00;;;;;;;18.71;57.39;100517.97;5029780;28;20450;-69
2022/09/18 00:08:37;;;;;;;4.00;1.07;;;;;;;18.71;57.36;100505.72;5050839;28;20483;-69
2022/09/18 00:11:04;;;;;;;10.90;2.30;;;;;;;18.72;57.97;100518.81;5033109;28;20431;-69
2022/09/18 00:13:30;;;;;;;4.57;1.10;;;;;;;18.72;57.21;100524.53;5032603;28;20520;-69
2022/09/18 00:15:55;;;;;;;5.57;1.50;;;;;;;18.72;57.50;100515.94;5050589;28;20464;-69
2022/09/18 00:18:21;;;;;;;3.87;1.20;;;;;;;18.70;57.33;100518.34;5050908;28;20225;-69
2022/09/18 00:20:46;;;;;;;4.03;1.23;;;;;;;18.70;57.64;100516.31;5017569;28;20176;-69
2022/09/18 00:23:12;;;;;;;4.33;1.07;;;;;;;18.70;57.35;100516.31;5013872;28;20220;-69
2022/09/18 00:25:37;;;;;;;2.50;1.00;;;;;;;18.70;57.58;100519.19;5012519;28;20212;-69
2022/09/18 00:28:02;;;;;;;4.60;1.00;;;;;;;18.71;57.71;100512.25;5046813;28;20168;-69
2022/09/18 00:30:28;;;;;;;3.90;0.80;;;;;;;18.70;57.48;100512.63;5050381;28;20230;-69
2022/09/18 00:32:53;;;;;;;3.73;1.27;;;;;;;18.70;57.41;100521.19;5031646;28;20168;-69
2022/09/18 00:35:19;;;;;;;5.93;1.03;;;;;;;18.69;57.75;100520.38;5047489;28;20179;-69
2022/09/18 00:37:44;;;;;;;4.33;1.23;;;;;;;18.69;57.34;100508.94;5047950;28;20172;-69
2022/09/18 00:40:09;;;;;;;2.60;1.00;;;;;;;18.68;57.39;100507.31;5048949;28;20545;-69
2022/09/18 00:42:35;;;;;;;2.80;0.90;;;;;;;18.69;57.29;100514.66;5030802;28;20175;-69
2022/09/18 00:45:00;;;;;;;4.20;1.10;;;;;;;18.69;57.04;100511.81;5030579;28;20202;-69
2022/09/18 00:47:31;;;;;;;4.00;1.00;;;;;;;18.67;57.73;100517.06;5028298;28;20250;-69
2022/09/18 00:50:09;;;;;;;5.63;1.10;;;;;;;18.67;57.52;100514.19;5015732;28;20270;-69
2022/09/18 00:53:00;;;;;;;2.10;0.67;;;;;;;18.68;57.24;100524.47;5032089;28;20430;-69
2022/09/18 00:55:30;;;;;;;12.33;1.30;;;;;;;18.68;57.29;100524.47;5024026;28;20442;-69
2022/09/18 00:57:56;;;;;;;5.20;1.00;;;;;;;18.67;57.59;100521.97;5032064;28;20521;-69
2022/09/18 01:00:38;;;;;;;2.63;1.00;;;;;;;18.67;57.70;100519.91;5015693;28;20832;-69
2022/09/18 01:03:03;;;;;;;3.07;1.03;;;;;;;18.67;57.36;100531.34;5011574;28;20452;-69
2022/09/18 01:05:44;;;;;;;4.87;1.30;;;;;;;18.68;57.11;100517.91;5012248;28;20914;-69
2022/09/18 01:08:14;;;;;;;3.57;0.97;;;;;;;18.67;57.81;100521.97;5011890;28;20227;-69
2022/09/18 01:10:46;;;;;;;3.00;1.07;;;;;;;18.66;57.62;100514.59;5004706;28;20967;-69
2022/09/18 01:13:34;;;;;;;5.57;1.10;;;;;;;18.67;57.59;100510.53;5031248;28;20771;-69
2022/09/18 01:16:12;;;;;;;2.43;0.87;;;;;;;18.67;57.66;100517.06;5010219;28;20429;-69
2022/09/18 01:18:49;;;;;;;3.00;1.40;;;;;;;18.68;57.20;100518.75;5049511;28;20441;-69
2022/09/18 01:21:58;;;;;;;2.80;0.93;;;;;;;18.65;58.30;100518.63;5048476;28;20480;-69
2022/09/18 01:24:30;;;;;;;2.40;0.90;;;;;;;18.65;57.81;100516.63;5003241;28;20474;-69
2022/09/18 01:27:01;;;;;;;5.30;1.20;;;;;;;18.65;58.10;100508.03;5048058;28;20446;-69
2022/09/18 01:29:42;;;;;;;2.53;0.80;;;;;;;18.65;57.89;100512.91;5046608;28;20429;-69
2022/09/18 01:32:20;;;;;;;3.60;1.00;;;;;;;18.66;57.76;100517.47;5031011;28;20454;-69
2022/09/18 01:34:57;;;;;;;2.83;1.30;;;;;;;18.66;58.31;100512.56;5047849;28;20892;-69
2022/09/18 01:37:35;;;;;;;3.60;0.90;;;;;;;18.64;57.62;100509.25;5031617;28;20521;-69
2022/09/18 01:40:03;;;;;;;3.97;1.20;;;;;;;18.64;57.95;100512.13;5031123;28;20418;-69
2022/09/18 01:42:28;;;;;;;2.80;1.03;;;;;;;18.65;57.91;100522.34;5048327;28;20418;-69
2022/09/18 01:44:55;;;;;;;2.13;0.90;;;;;;;18.64;58.47;100517.84;5013125;28;20445;-69
2022/09/18 01:47:20;;;;;;;2.67;0.90;;;;;;;18.64;57.86;100512.13;5029504;28;20191;-69
2022/09/18 01:49:46;;;;;;;3.00;0.93;;;;;;;18.65;57.87;100508.03;4996352;28;20731;-69
2022/09/18 01:52:20;;;;;;;2.97;1.10;;;;;;;18.64;58.03;100512.13;4996390;28;20503;-69
2022/09/18 01:54:47;;;;;;;3.83;1.07;;;;;;;18.65;57.67;100513.75;5047048;28;20163;-69
2022/09/18 01:57:20;;;;;;;3.10;0.90;;;;;;;18.63;58.52;100521.91;5012710;28;20982;-69
2022/09/18 01:59:56;;;;;;;7.00;1.03;;;;;;;18.63;57.69;100521.91;5015025;28;20426;-69
2022/09/18 02:02:29;;;;;;;3.87;1.07;;;;;;;18.64;57.79;100514.97;5030955;28;20583;-69
2022/09/18 02:04:57;;;;;;;1.73;0.73;;;;;;;18.63;58.54;100516.19;5015177;28;20418;-69
2022/09/18 02:07:38;;;;;;;2.47;0.90;;;;;;;18.63;58.52;100515.34;5014055;28;20450;-69
2022/09/18 02:10:04;;;;;;;2.33;0.97;;;;;;;18.64;57.72;100514.97;5025987;28;20422;-69
2022/09/18 02:12:29;;;;;;;2.40;0.83;;;;;;;18.63;57.71;100516.19;5038970;28;20436;-69
2022/09/18 02:14:57;;;;;;;2.57;0.97;;;;;;;18.64;58.10;100514.97;5047537;28;20201;-69
2022/09/18 02:17:26;;;;;;;4.23;1.30;;;;;;;18.62;58.32;100500.22;5030898;28;20179;-69
2022/09/18 02:20:05;;;;;;;3.17;1.00;;;;;;;18.62;57.90;100505.94;5046889;28;20426;-69
2022/09/18 02:22:31;;;;;;;3.73;1.27;;;;;;;18.62;58.28;100519.41;5030687;28;20410;-69
2022/09/18 02:24:58;;;;;;;3.13;1.00;;;;;;;18.61;58.33;100510.00;5049364;28;20913;-69
2022/09/18 02:27:23;;;;;;;3.00;1.40;;;;;;;18.61;58.22;100518.56;5033073;28;20230;-69
2022/09/18 02:29:50;;;;;;;4.13;1.50;;;;;;;18.62;58.32;100517.38;5032448;28;20428;-69
2022/09/18 02:32:15;;;;;;;5.97;1.10;;;;;;;18.61;58.23;100512.84;5049553;28;20665;-69
2022/09/18 02:34:40;;;;;;;3.13;1.00;;;;;;;18.61;57.88;100509.19;5065304;28;20413;-69
2022/09/18 02:37:53;;;;;;;4.57;1.03;;;;;;;18.62;57.85;100510.84;5033980;28;20167;-69
2022/09/18 02:41:02;;;;;;;3.57;1.00;;;;;;;18.61;58.59;100515.72;5028311;28;20558;-67
2022/09/18 02:43:37;;;;;;;2.93;1.03;;;;;;;18.61;58.50;100506.31;5048657;28;20479;-66
2022/09/18 02:46:11;;;;;;;2.40;0.70;;;;;;;18.60;58.20;100498.94;5048359;28;20449;-66
2022/09/18 02:49:05;;;;;;;5.40;1.10;;;;;;;18.60;58.06;100496.06;5031466;28;20528;-66
2022/09/18 02:51:36;;;;;;;3.20;0.90;;;;;;;18.59;58.58;100492.41;5032844;28;20452;-66
2022/09/18 02:54:06;;;;;;;3.30;1.17;;;;;;;18.59;58.35;100492.41;5014809;28;20846;-66
2022/09/18 02:56:40;;;;;;;4.23;1.00;;;;;;;18.59;58.20;100498.13;5030659;28;20417;-66
2022/09/18 02:59:21;;;;;;;2.03;0.87;;;;;;;18.60;58.32;100490.34;5028177;28;20473;-66
2022/09/18 03:01:46;;;;;;;4.50;0.90;;;;;;;18.59;58.39;100489.53;5048868;28;20429;-66
2022/09/18 03:04:13;;;;;;;4.60;1.37;;;;;;;18.59;57.99;100478.09;4998838;28;20437;-66
2022/09/18 03:06:39;;;;;;;2.80;0.80;;;;;;;18.57;58.37;100477.63;5048870;28;20741;-66
2022/09/18 03:09:04;;;;;;;2.20;0.90;;;;;;;18.57;58.25;100474.78;5030631;28;20418;-66
2022/09/18 03:11:30;;;;;;;3.27;1.03;;;;;;;18.58;58.53;100476.47;5030974;28;20238;-66
2022/09/18 03:13:55;;;;;;;3.33;0.90;;;;;;;18.58;58.23;100473.59;5014348;28;20199;-66
2022/09/18 03:16:21;;;;;;;2.20;0.80;;;;;;;18.59;57.98;100475.25;5048245;28;20238;-66
2022/09/18 03:18:46;;;;;;;2.53;0.70;;;;;;;18.58;58.30;100490.75;5050951;28;20181;-66
2022/09/18 03:21:11;;;;;;;2.53;0.90;;;;;;;18.57;58.31;100483.34;5030271;28;20178;-66
2022/09/18 03:23:37;;;;;;;2.30;1.03;;;;;;;18.57;58.60;100485.41;5057935;28;20253;-66
2022/09/18 03:26:02;;;;;;;2.80;0.90;;;;;;;18.58;58.30;100487.91;5049770;28;20199;-66
2022/09/18 03:28:30;;;;;;;5.30;1.00;;;;;;;18.57;58.64;100493.97;5068141;28;20228;-66
2022/09/18 03:30:55;;;;;;;5.37;1.00;;;;;;;18.58;58.73;100484.19;5051531;28;20658;-66
2022/09/18 03:33:21;;;;;;;2.73;0.73;;;;;;;18.59;58.66;100489.53;5071663;28;20530;-66
2022/09/18 03:35:46;;;;;;;2.23;1.07;;;;;;;18.57;58.99;100489.06;5053380;28;20221;-66
2022/09/18 03:38:12;;;;;;;5.50;1.30;;;;;;;18.57;58.76;100494.78;5053800;28;20163;-66
2022/09/18 03:40:37;;;;;;;3.67;1.17;;;;;;;18.56;58.80;100484.56;5062717;28;20497;-67
2022/09/18 03:43:02;;;;;;;2.53;1.00;;;;;;;18.55;58.76;100494.34;5017126;28;20186;-67
2022/09/18 03:45:28;;;;;;;4.03;1.00;;;;;;;18.57;58.65;100491.13;5032929;28;20175;-67
2022/09/18 03:47:53;;;;;;;3.47;1.00;;;;;;;18.57;59.05;100488.25;5033601;28;20199;-67
2022/09/18 03:50:19;;;;;;;3.03;1.00;;;;;;;18.57;58.62;100485.41;5033299;28;20175;-67
2022/09/18 03:52:44;;;;;;;3.83;1.10;;;;;;;18.56;58.83;100492.34;5033643;28;20182;-67
2022/09/18 03:55:10;;;;;;;2.57;1.10;;;;;;;18.56;58.53;100486.63;5033177;28;20532;-67
2022/09/18 03:57:35;;;;;;;3.77;1.10;;;;;;;18.56;59.02;100493.13;5033216;28;20639;-67
2022/09/18 04:00:01;;;;;;;3.33;0.93;;;;;;;18.57;59.24;100497.66;5029413;28;20167;-67
2022/09/18 04:02:26;;;;;;;3.70;1.00;;;;;;;18.57;59.05;100502.56;5025613;28;20286;-67
2022/09/18 04:04:52;;;;;;;2.90;0.90;;;;;;;18.56;58.63;100484.56;5049308;28;20623;-67
2022/09/18 04:07:18;;;;;;;4.03;1.03;;;;;;;18.55;58.35;100491.50;5051083;28;20597;-67
2022/09/18 04:09:44;;;;;;;3.83;1.00;;;;;;;18.56;59.02;100498.84;5050112;28;20414;-67
2022/09/18 04:12:09;;;;;;;4.33;1.20;;;;;;;18.55;58.35;100494.34;5032674;28;20183;-67
2022/09/18 04:14:34;;;;;;;2.10;1.00;;;;;;;18.55;58.46;100484.94;5032622;28;20658;-67
2022/09/18 04:17:00;;;;;;;2.90;1.10;;;;;;;18.56;59.34;100498.06;5013111;28;20691;-67
2022/09/18 04:19:25;;;;;;;2.33;0.93;;;;;;;18.55;58.61;100496.38;5050865;28;20168;-67
2022/09/18 04:21:51;;;;;;;2.13;0.90;;;;;;;18.54;59.27;100507.00;5032708;28;20632;-67
2022/09/18 04:24:16;;;;;;;3.33;1.30;;;;;;;18.53;58.52;100499.63;5032559;28;20228;-67
2022/09/18 04:26:41;;;;;;;2.80;1.10;;;;;;;18.54;58.55;100507.00;4999838;28;20208;-67
2022/09/18 04:29:07;;;;;;;3.20;1.27;;;;;;;18.54;58.28;100494.72;5050527;28;20176;-67
2022/09/18 04:31:32;;;;;;;1.80;0.70;;;;;;;18.55;58.58;100497.22;5050508;28;20194;-67
2022/09/18 04:33:58;;;;;;;3.20;1.20;;;;;;;18.53;58.25;100502.50;5050360;28;20176;-67
2022/09/18 04:36:23;;;;;;;2.90;0.97;;;;;;;18.54;58.33;100498.41;5016147;28;20176;-67
2022/09/18 04:38:49;;;;;;;2.40;0.90;;;;;;;18.54;58.40;100501.28;5015899;28;20156;-67
2022/09/18 04:41:14;;;;;;;2.83;0.97;;;;;;;18.53;58.64;100513.94;5037862;28;20191;-67
2022/09/18 04:43:40;;;;;;;3.20;1.10;;;;;;;18.53;58.27;100499.63;5032125;28;20179;-67
2022/09/18 04:46:05;;;;;;;3.60;1.00;;;;;;;18.51;58.83;100504.88;5032052;28;20196;-67
2022/09/18 04:48:30;;;;;;;3.47;1.23;;;;;;;18.52;58.69;100502.84;5032309;28;20612;-67
2022/09/18 04:50:56;;;;;;;3.07;1.13;;;;;;;18.52;58.40;100503.66;5028956;28;20172;-67
2022/09/18 04:53:21;;;;;;;3.13;1.07;;;;;;;18.52;58.66;100497.94;5032085;28;20183;-67
2022/09/18 04:55:47;;;;;;;3.83;0.93;;;;;;;18.53;58.77;100504.50;5015644;28;20533;-67
2022/09/18 04:58:13;;;;;;;3.10;1.10;;;;;;;18.52;58.48;100508.56;5032053;28;20184;-67
2022/09/18 05:00:38;;;;;;;4.03;1.00;;;;;;;18.52;58.65;100508.56;5030863;28;20211;-67
2022/09/18 05:03:04;;;;;;;3.10;1.40;;;;;;;18.52;58.59;100500.00;5030959;28;20418;-67
2022/09/18 05:05:30;;;;;;;5.83;1.10;;;;;;;18.52;58.48;100497.94;5030824;28;20264;-67
2022/09/18 05:07:59;;;;;;;3.27;1.17;;;;;;;18.51;58.91;100501.22;5014056;28;20204;-67
2022/09/18 05:10:25;;;;;;;2.73;0.80;;;;;;;18.50;58.23;100511.81;5030543;28;20183;-67
2022/09/18 05:12:50;;;;;;;4.10;1.20;;;;;;;18.51;57.88;100516.31;5030627;28;20402;-67
2022/09/18 05:15:16;;;;;;;2.60;1.03;;;;;;;18.51;58.32;100515.50;5014626;28;20499;-67
2022/09/18 05:17:42;;;;;;;2.07;0.90;;;;;;;18.51;58.21;100509.78;5049539;28;20152;-67
2022/09/18 05:20:07;;;;;;;4.13;1.27;;;;;;;18.51;58.00;100513.44;5031824;28;20430;-67
2022/09/18 05:22:33;;;;;;;4.10;1.40;;;;;;;18.50;58.84;100520.38;5031196;28;20183;-67
2022/09/18 05:24:59;;;;;;;2.30;1.03;;;;;;;18.50;58.33;100516.69;5049257;28;20184;-67
2022/09/18 05:27:24;;;;;;;4.90;1.70;;;;;;;18.49;57.97;100515.88;5047970;28;20202;-67
2022/09/18 05:29:49;;;;;;;2.40;0.97;;;;;;;18.50;57.93;100517.53;5049794;28;20180;-67
2022/09/18 05:32:19;;;;;;;4.33;1.00;;;;;;;18.50;58.56;100517.53;5047789;28;20187;-67
2022/09/18 05:34:48;;;;;;;3.70;0.97;;;;;;;18.50;58.46;100514.66;5048505;28;20164;-67
2022/09/18 05:37:15;;;;;;;2.30;1.00;;;;;;;18.49;58.18;100521.59;5047948;28;20417;-67
2022/09/18 05:39:41;;;;;;;2.77;0.93;;;;;;;18.49;58.26;100521.59;5047881;28;20434;-67
2022/09/18 05:42:06;;;;;;;2.90;1.00;;;;;;;18.50;58.15;100526.09;5030969;28;20399;-67
2022/09/18 05:44:32;;;;;;;3.50;0.90;;;;;;;18.50;58.77;100528.13;5014901;28;20188;-67
2022/09/18 05:46:57;;;;;;;2.30;1.20;;;;;;;18.49;59.18;100535.88;4998242;28;20207;-67
2022/09/18 05:49:22;;;;;;;2.73;1.07;;;;;;;18.49;58.31;100538.75;5031057;28;20225;-67
2022/09/18 05:51:48;;;;;;;2.63;1.00;;;;;;;18.48;58.46;100528.53;5014581;28;20168;-67
2022/09/18 05:54:14;;;;;;;2.57;0.90;;;;;;;18.49;58.66;100530.16;5048465;28;20175;-67
2022/09/18 05:56:39;;;;;;;3.50;1.20;;;;;;;18.49;58.42;100535.88;5011359;28;20176;-67
2022/09/18 05:59:05;;;;;;;2.33;0.97;;;;;;;18.49;58.82;100533.03;5030998;28;20759;-67
2022/09/18 06:01:30;;;;;;;3.60;1.20;;;;;;;18.49;58.78;100544.47;5048763;28;20206;-67
2022/09/18 06:03:56;;;;;;;2.23;0.80;;;;;;;18.49;58.26;100533.03;4998100;28;20172;-67
2022/09/18 06:06:21;;;;;;;7.73;1.30;;;;;;;18.49;58.94;100537.91;5030920;28;20242;-67
2022/09/18 06:08:47;;;;;;;3.57;1.00;;;;;;;18.49;58.54;100537.91;5014408;28;20603;-67
2022/09/18 06:11:12;;;;;;;13.13;1.00;;;;;;;18.47;58.86;100541.13;5037131;28;20535;-67
2022/09/18 06:13:38;;;;;;;3.50;1.00;;;;;;;18.48;58.94;100541.97;5030698;28;20186;-67
2022/09/18 06:16:03;;;;;;;1.97;0.90;;;;;;;18.48;58.48;100537.09;5031137;28;20171;-67
2022/09/18 06:18:29;;;;;;;3.40;1.37;;;;;;;18.47;58.83;100535.41;5045610;28;20277;-67
2022/09/18 06:20:56;;;;;;;2.23;1.03;;;;;;;18.48;58.99;100547.69;5030832;28;20184;-71
2022/09/18 06:23:22;;;;;;;2.00;0.80;;;;;;;18.47;59.14;100549.72;5030550;28;20243;-67
2022/09/18 06:25:47;;;;;;;5.57;1.40;;;;;;;18.48;58.63;100542.81;4997988;28;20791;-68
2022/09/18 06:28:13;;;;;;;2.90;1.10;;;;;;;18.47;58.96;100546.84;5048238;28;20446;-69
2022/09/18 06:30:38;;;;;;;2.47;1.00;;;;;;;18.47;58.64;100548.91;5030906;28;20180;-68
2022/09/18 06:33:05;;;;;;;5.83;1.20;;;;;;;18.47;59.05;100551.75;5048536;28;20203;-68
2022/09/18 06:35:34;;;;;;;4.23;1.17;;;;;;;18.46;59.06;100556.63;5014316;28;20610;-68
2022/09/18 06:38:01;;;;;;;4.80;1.10;;;;;;;18.47;58.71;100557.47;5013757;28;20418;-68
2022/09/18 06:40:27;;;;;;;3.13;1.17;;;;;;;18.48;58.60;100553.41;5040782;28;20484;-68
2022/09/18 06:42:57;;;;;;;5.40;1.37;;;;;;;18.47;58.43;100557.47;5030685;28;20410;-67
2022/09/18 06:45:23;;;;;;;3.80;1.00;;;;;;;18.46;59.48;100550.09;5012138;28;20962;-67
2022/09/18 06:47:53;;;;;;;3.90;1.30;;;;;;;18.46;59.03;100559.50;5030147;28;20458;-67
2022/09/18 06:50:21;;;;;;;3.20;1.20;;;;;;;18.45;58.67;100563.56;5030270;28;20906;-67
2022/09/18 06:52:47;;;;;;;2.47;1.10;;;;;;;18.46;58.79;100565.22;5013003;28;20406;-67
2022/09/18 06:55:14;;;;;;;3.47;1.20;;;;;;;18.47;58.45;100558.28;5012885;28;20409;-67
2022/09/18 06:57:39;;;;;;;1.93;0.90;;;;;;;18.47;59.04;100566.88;5028595;28;20427;-67
2022/09/18 07:00:05;;;;;;;5.20;1.20;;;;;;;18.46;59.08;100573.78;5047033;28;20418;-67
2022/09/18 07:02:31;;;;;;;3.43;1.13;;;;;;;18.46;59.04;100562.34;5046736;28;20199;-67
2022/09/18 07:04:57;;;;;;;3.93;0.90;;;;;;;18.46;59.05;100570.94;5049273;28;20418;-67
2022/09/18 07:07:22;;;;;;;3.00;0.90;;;;;;;18.46;58.96;100564.41;5051698;28;20191;-67
2022/09/18 07:09:48;;;;;;;2.50;1.10;;;;;;;18.45;59.06;100569.28;5032946;28;20164;-67
2022/09/18 07:12:13;;;;;;;3.17;1.30;;;;;;;18.45;59.25;100568.44;5050979;28;20160;-67
2022/09/18 07:14:39;;;;;;;3.30;1.27;;;;;;;18.45;59.27;100566.41;5025421;28;20520;-68
2022/09/18 07:17:10;;;;;;;4.30;1.53;;;;;;;18.45;59.25;100568.44;5049267;28;20179;-68
2022/09/18 07:19:36;;;;;;;3.27;1.10;;;;;;;18.46;58.70;100573.78;5049753;28;20186;-67
2022/09/18 07:22:01;;;;;;;3.40;1.10;;;;;;;18.46;59.32;100562.34;5049501;28;20448;-67
2022/09/18 07:24:27;;;;;;;2.10;1.20;;;;;;;18.45;59.04;100557.00;5033596;28;20235;-67
2022/09/18 07:26:52;;;;;;;2.10;1.00;;;;;;;18.46;58.93;100572.97;5051745;28;20207;-67
2022/09/18 07:29:18;;;;;;;4.50;1.53;;;;;;;18.46;58.59;100567.25;5050345;28;20631;-68
2022/09/18 07:31:43;;;;;;;2.73;1.20;;;;;;;18.45;59.65;100563.56;5050474;28;20178;-68
2022/09/18 07:34:10;;;;;;;3.47;1.30;;;;;;;18.45;58.81;100560.69;5050118;28;20175;-68
2022/09/18 07:36:36;;;;;;;3.40;1.20;;;;;;;18.44;59.34;100559.06;5050113;28;20310;-68
2022/09/18 07:39:02;;;;;;;3.10;1.30;;;;;;;18.45;59.47;100566.41;5017018;28;20793;-68
2022/09/18 07:41:27;;;;;;;3.80;1.50;;;;;;;18.45;59.63;100559.88;5037939;28;20589;-68
2022/09/18 07:43:52;;;;;;;3.03;1.20;;;;;;;18.45;59.02;100552.13;5033206;28;20541;-68
2022/09/18 07:46:18;;;;;;;4.67;1.83;;;;;;;18.46;58.98;100562.34;5033514;28;20659;-68
2022/09/18 07:48:43;;;;;;;4.47;1.50;;;;;;;18.46;59.34;100564.41;5033322;28;20179;-68
2022/09/18 07:51:09;;;;;;;2.60;1.33;;;;;;;18.45;58.69;100566.41;5051319;28;20172;-68
2022/09/18 07:53:36;;;;;;;2.93;1.33;;;;;;;18.46;58.94;100562.34;5000064;28;20699;-67
2022/09/18 07:56:08;;;;;;;4.50;1.10;;;;;;;18.46;58.97;100562.34;5051266;28;20160;-68
2022/09/18 07:58:34;;;;;;;2.10;1.10;;;;;;;18.46;58.75;100562.34;5033851;28;20433;-68
2022/09/18 08:01:01;;;;;;;3.87;1.20;;;;;;;18.47;58.94;100568.91;5013514;28;20446;-68
2022/09/18 08:03:27;;;;;;;2.80;1.00;;;;;;;18.45;58.68;100569.28;5035113;28;20422;-67
2022/09/18 08:05:53;;;;;;;4.43;1.20;;;;;;;18.46;58.96;100572.97;5049840;28;20429;-67
2022/09/18 08:08:18;;;;;;;3.90;1.60;;;;;;;18.45;59.06;100565.59;5050913;28;20165;-67
2022/09/18 08:10:44;;;;;;;4.10;1.17;;;;;;;18.45;59.01;100572.13;5043509;28;20804;-67
2022/09/18 08:13:09;;;;;;;2.97;1.20;;;;;;;18.44;59.31;100563.94;5050726;28;20635;-68
2022/09/18 08:15:36;;;;;;;3.70;1.20;;;;;;;18.44;58.74;100576.19;5012879;28;20229;-67
2022/09/18 08:18:02;;;;;;;2.63;1.30;;;;;;;18.44;59.07;100572.50;5032540;28;20183;-68
2022/09/18 08:20:28;;;;;;;5.87;1.20;;;;;;;18.44;59.14;100573.34;5032655;28;20881;-67
2022/09/18 08:22:53;;;;;;;4.07;1.30;;;;;;;18.44;59.03;100573.34;5032428;28;20223;-68
2022/09/18 08:25:22;;;;;;;3.40;1.30;;;;;;;18.43;59.37;100579.44;4999929;28;20429;-68
2022/09/18 08:27:47;;;;;;;4.63;1.27;;;;;;;18.44;58.97;100576.19;5000554;28;20249;-68
2022/09/18 08:30:13;;;;;;;5.30;1.40;;;;;;;18.44;58.63;100583.94;5032632;28;20773;-68
2022/09/18 08:32:39;;;;;;;3.20;1.47;;;;;;;18.43;58.98;100577.41;5016108;28;20267;-68
2022/09/18 08:35:05;;;;;;;4.40;1.90;;;;;;;18.43;58.66;100582.28;5032204;28;20426;-68
2022/09/18 08:37:32;;;;;;;3.10;1.20;;;;;;;18.43;58.49;100586.00;5020854;28;20633;-68
2022/09/18 08:39:57;;;;;;;4.47;1.50;;;;;;;18.43;58.91;100586.00;5032576;28;20434;-67
2022/09/18 08:42:32;;;;;;;6.03;1.53;;;;;;;18.43;58.99;100579.44;5031018;28;20448;-67
2022/09/18 08:45:34;;;;;;;3.33;1.37;;;;;;;18.44;58.68;100581.09;5032744;28;20279;-67
2022/09/18 08:48:05;;;;;;;3.53;1.40;;;;;;;18.43;58.92;100583.13;5022133;28;20475;-67
2022/09/18 08:50:33;;;;;;;3.83;1.30;;;;;;;18.43;58.79;100577.41;5016457;28;20478;-67
2022/09/18 08:53:03;;;;;;;4.80;1.67;;;;;;;18.43;58.87;100571.69;5015861;28;20402;-67
2022/09/18 08:55:32;;;;;;;6.90;1.43;;;;;;;18.43;58.62;100580.28;5015709;28;20423;-67
2022/09/18 08:57:59;;;;;;;3.73;1.03;;;;;;;18.44;58.54;100569.66;5016008;28;20480;-67
2022/09/18 09:00:48;;;;;;;5.23;1.33;;;;;;;18.43;58.80;100571.69;5032045;28;20450;-67
2022/09/18 09:03:25;;;;;;;2.80;1.23;;;;;;;18.42;58.72;100570.00;5034747;28;20398;-67
2022/09/18 09:05:56;;;;;;;3.13;1.17;;;;;;;18.42;58.59;100572.06;5049958;28;20913;-67
2022/09/18 09:08:25;;;;;;;3.30;1.67;;;;;;;18.42;58.36;100572.88;5032349;28;20418;-67
2022/09/18 09:11:17;;;;;;;5.40;1.37;;;;;;;18.43;58.52;100565.97;5031672;28;20437;-67
2022/09/18 09:14:20;;;;;;;4.47;1.50;;;;;;;18.43;58.39;100557.41;5031708;28;20432;-67
2022/09/18 09:16:49;;;;;;;3.23;0.93;;;;;;;18.42;58.54;100567.16;5049482;28;20410;-67
2022/09/18 09:19:31;;;;;;;2.70;1.27;;;;;;;18.41;58.33;100562.66;5016742;28;20430;-67
2022/09/18 09:22:30;;;;;;;5.50;1.40;;;;;;;18.41;58.23;100551.22;5030600;28;20978;-68
2022/09/18 09:25:27;;;;;;;8.20;1.40;;;;;;;18.41;58.30;100558.97;5032848;28;20403;-68
2022/09/18 09:28:02;;;;;;;3.97;1.37;;;;;;;18.42;58.28;100549.19;5013020;28;20834;-68
2022/09/18 09:30:28;;;;;;;4.73;1.20;;;;;;;18.40;58.00;100548.72;5047821;28;20410;-68
2022/09/18 09:33:47;;;;;;;5.57;1.50;;;;;;;18.42;58.12;100560.63;5030074;28;20411;-68
2022/09/18 09:36:14;;;;;;;6.90;1.50;;;;;;;18.40;58.21;100552.41;4987226;28;20975;-68
2022/09/18 09:39:02;;;;;;;5.40;1.83;;;;;;;18.41;58.03;100544.69;5002633;28;20426;-68
2022/09/18 09:41:38;;;;;;;3.00;1.20;;;;;;;18.41;58.21;100542.63;5031262;28;20426;-68
2022/09/18 09:44:22;;;;;;;2.97;1.10;;;;;;;18.41;58.09;100547.53;5031342;28;20409;-68
2022/09/18 09:47:26;;;;;;;6.23;1.30;;;;;;;18.41;57.88;100551.22;5049135;28;20452;-68
2022/09/18 09:50:01;;;;;;;3.60;1.03;;;;;;;18.40;58.11;100546.72;5015684;28;20486;-68
2022/09/18 09:52:27;;;;;;;3.73;1.20;;;;;;;18.41;57.89;100544.69;5031921;28;20500;-68
2022/09/18 09:55:20;;;;;;;8.77;1.50;;;;;;;18.40;57.65;100538.13;5014970;28;20952;-68
2022/09/18 09:58:02;;;;;;;3.30;1.40;;;;;;;18.41;57.88;100539.78;5024070;28;20214;-69
2022/09/18 10:00:28;;;;;;;5.03;1.10;;;;;;;18.40;57.87;100541.00;5030976;28;20414;-68
2022/09/18 10:03:03;;;;;;;4.70;1.40;;;;;;;18.39;57.76;100539.34;5014865;28;20476;-68
2022/09/18 10:05:38;;;;;;;4.50;1.30;;;;;;;18.40;58.28;100543.00;5032846;28;20452;-69
2022/09/18 10:08:48;;;;;;;4.33;1.17;;;;;;;18.39;57.69;100542.19;5047569;28;20761;-69
2022/09/18 10:11:14;;;;;;;6.73;1.20;;;;;;;18.39;57.32;100539.34;5046439;28;20429;-69
2022/09/18 10:13:42;;;;;;;3.27;1.20;;;;;;;18.39;57.85;100536.47;5030988;28;20435;-69
2022/09/18 10:16:20;;;;;;;2.50;0.90;;;;;;;18.39;57.32;100538.50;5004543;28;20275;-68
2022/09/18 10:18:47;;;;;;;2.73;1.10;;;;;;;18.39;57.13;100539.34;5011158;28;20422;-68
2022/09/18 10:21:20;;;;;;;3.03;1.20;;;;;;;18.40;57.08;100540.16;5011150;28;20446;-68
2022/09/18 10:24:16;;;;;;;3.90;1.23;;;;;;;18.40;57.16;100534.44;5011243;28;20544;-69
2022/09/18 10:26:44;;;;;;;4.87;1.57;;;;;;;18.38;56.82;100531.97;5007746;28;20532;-69
2022/09/18 10:29:10;;;;;;;5.00;1.87;;;;;;;18.37;56.96;100527.44;5028960;28;20411;-68
2022/09/18 10:31:52;;;;;;;2.43;1.03;;;;;;;18.38;56.35;100531.13;5028849;28;20721;-68
2022/09/18 10:34:46;;;;;;;4.97;1.47;;;;;;;18.38;56.25;100526.25;5009562;28;20259;-68
2022/09/18 10:37:27;;;;;;;4.27;1.10;;;;;;;18.37;56.53;100518.84;5025857;28;20426;-68
2022/09/18 10:39:54;;;;;;;4.83;1.00;;;;;;;18.38;55.97;100516.84;5032295;28;20414;-69
2022/09/18 10:42:24;;;;;;;4.63;1.40;;;;;;;18.38;55.84;100508.25;5017955;28;20570;-69
2022/09/18 10:44:58;;;;;;;2.93;1.10;;;;;;;18.38;56.34;100514.81;5024971;28;20422;-69
2022/09/18 10:47:27;;;;;;;2.60;1.30;;;;;;;18.38;55.54;100514.81;5015953;28;20793;-68
2022/09/18 10:50:01;;;;;;;2.73;1.20;;;;;;;18.37;55.73;100510.28;5051742;28;20757;-69
2022/09/18 10:52:36;;;;;;;3.93;1.13;;;;;;;18.38;55.65;100506.25;5033664;28;20457;-66
2022/09/18 10:55:08;;;;;;;3.67;1.30;;;;;;;18.39;55.38;100509.91;5033694;28;20504;-66
2022/09/18 10:57:42;;;;;;;2.73;1.20;;;;;;;18.37;55.51;100506.63;5033396;28;20414;-66
2022/09/18 11:00:11;;;;;;;2.53;0.90;;;;;;;18.37;55.61;100503.75;5050950;28;20421;-66
2022/09/18 11:02:47;;;;;;;7.50;1.30;;;;;;;18.36;55.34;100502.09;5050104;28;20876;-66
2022/09/18 11:05:32;;;;;;;5.10;1.30;;;;;;;18.35;55.10;100498.41;5032397;28;20799;-66
2022/09/18 11:07:59;;;;;;;6.83;1.10;;;;;;;18.35;54.91;100500.41;5032639;28;20453;-66
2022/09/18 11:10:25;;;;;;;3.57;1.13;;;;;;;18.36;54.90;100496.38;4999603;28;20422;-67
2022/09/18 11:12:52;;;;;;;5.40;0.90;;;;;;;18.36;54.89;100497.19;5016141;28;20517;-67
2022/09/18 11:15:19;;;;;;;4.03;1.10;;;;;;;18.35;54.38;100497.56;5032648;28;20402;-67
2022/09/18 11:17:50;;;;;;;3.43;1.10;;;;;;;18.36;54.25;100493.53;5032578;28;20429;-67
2022/09/18 11:20:22;;;;;;;3.47;1.00;;;;;;;18.34;54.42;100487.34;5012596;28;21015;-67
2022/09/18 11:22:48;;;;;;;3.50;0.90;;;;;;;18.35;54.22;100495.56;5012311;28;20471;-67
2022/09/18 11:25:19;;;;;;;2.70;1.20;;;;;;;18.34;54.38;100496.75;5028878;28;20703;-67
2022/09/18 11:27:50;;;;;;;10.13;1.37;;;;;;;18.34;54.12;100485.31;5030107;28;20192;-67
2022/09/18 11:30:20;;;;;;;5.03;1.27;;;;;;;18.34;53.92;100490.19;5028584;28;20407;-67
2022/09/18 11:32:46;;;;;;;3.73;1.20;;;;;;;18.34;54.14;100485.31;5029639;28;20423;-67
2022/09/18 11:35:14;;;;;;;1.60;0.80;;;;;;;18.35;53.71;100491.84;5013896;28;20403;-67
2022/09/18 11:37:51;;;;;;;2.43;0.80;;;;;;;18.34;53.88;100476.75;5031773;28;20648;-67